Flight Track Log - Related Links

Times and Time Zones

All times are in EDT time to prevent confusion due to time zone crossing. See the XOJ549 flight status page for this flight to view local times or setup timezone preferences in your user account.

Time Position Orientation Groundspeed Altitude Reporting Facility
EDT Latitude Longitude Course Direction KTS MPH feet Rate Location/Type
Tue 10:29:26 AM 40.6000 -73.8000 119° Southeast 185 213 3,400  Level New York TRACON
Tue 10:31:15 AM 40.5508 -73.6828 119° Southeast 258 297 10,500 3,635 Climbing New York Center
Tue 10:32:16 AM 40.5092 -73.5964 122° Southeast 265 305 13,700 2,902 Climbing New York Center
Tue 10:33:17 AM 40.4653 -73.5100 124° Southeast 294 338 16,400 2,521 Climbing New York Center
Tue 10:34:15 AM 40.4175 -73.4181 124° Southeast 333 383 18,700 2,571 Climbing New York Center
Tue 10:35:16 AM 40.3575 -73.3042 125° Southeast 338 389 21,500 2,213 Climbing New York Center
Tue 10:36:17 AM 40.2992 -73.2011 127° Southeast 343 395 23,200 1,736 Climbing New York Center
Tue 10:37:17 AM 40.2389 -73.0986 128° Southeast 349 402 25,000 2,085 Climbing New York Center
Tue 10:38:15 AM 40.1642 -72.9711 127° Southeast 380 437 27,300 1,966 Climbing New York Center
Tue 10:39:16 AM 40.0953 -72.8575 128° Southeast 394 453 28,900 1,475 Climbing New York Center
Tue 10:40:17 AM 40.0206 -72.7306 128° Southeast 417 480 30,300 1,636 Climbing New York Center
Tue 10:41:17 AM 39.9389 -72.6200 134° Southeast 423 487 32,200 1,729 Climbing New York Center
Tue 10:42:15 AM 39.8531 -72.5122 136° Southeast 429 494 33,700 1,576 Climbing New York Center
Tue 10:43:15 AM 39.7653 -72.3911 133° Southeast 444 511 35,300 1,835 Climbing New York Center
Tue 10:44:16 AM 39.6769 -72.2839 137° Southeast 444 511 37,400 2,083 Climbing New York Center
Tue 10:45:16 AM 39.5950 -72.1772 135° Southeast 444 511 39,500 1,636 Climbing New York Center
Tue 10:46:17 AM 39.5128 -72.0733 136° Southeast 425 489 40,700 738 Climbing New York Center
Tue 10:47:18 AM 39.4286 -71.9667 136° Southeast 420 483 41,000 153 Climbing New York Center
Tue 10:48:15 AM 39.3422 -71.8553 135° Southeast 425 489 41,000  Level New York Center
Tue 10:49:15 AM 39.2556 -71.7411 134° Southeast 431 496 41,000  Level New York Center
Tue 10:50:16 AM 39.1667 -71.6383 138° Southeast 431 496 41,000  Level New York Center
Tue 10:51:17 AM 39.0800 -71.5300 136° Southeast 431 496 41,000  Level New York Center
Tue 10:52:16 AM 38.9931 -71.4197 135° Southeast 431 496 41,000  Level New York Center
Tue 10:53:17 AM 38.9061 -71.3094 135° Southeast 431 496 41,000  Level New York Center
Tue 10:54:18 AM 38.8192 -71.2019 136° Southeast 431 496 41,000  Level New York Center
Tue 10:55:15 AM 38.7278 -71.0950 138° Southeast 436 502 41,000  Level New York Center
Tue 10:56:15 AM 38.6425 -70.9828 134° Southeast 436 502 41,000  Level New York Center
Tue 10:57:16 AM 38.5489 -70.8764 138° Southeast 441 507 41,000  Level New York Center
Tue 10:58:17 AM 38.4656 -70.7622 133° Southeast 441 507 41,000  Level New York Center
Tue 10:59:15 AM 38.3717 -70.6642 141° Southeast 441 507 41,000  Level New York Center
Tue 11:00:17 AM 38.2819 -70.5556 136° Southeast 441 507 41,000  Level New York Center
Tue 11:01:17 AM 38.1942 -70.4475 136° Southeast 436 502 41,000  Level New York Center
Tue 11:02:18 AM 38.1103 -70.3369 134° Southeast 436 502 41,000  Level New York Center
Tue 11:03:15 AM 38.0225 -70.2319 137° Southeast 436 502 41,000  Level New York Center
Tue 11:03:58 AM 38.1333 -70.3667 133° Southeast 430 495 41,000  Level New York Oceanic (ODAPS)
Tue 11:11:00 AM 37.3133 -69.2593 133° Southeast 430 495 41,000  Level FlightAware Transoceanic
Tue 11:12:00 AM 37.2308 -69.1499 134° Southeast 430 495 41,000  Level FlightAware Transoceanic
Tue 11:13:00 AM 37.1481 -69.0408 134° Southeast 430 495 41,000  Level FlightAware Transoceanic
Tue 11:14:00 AM 37.0653 -68.9319 134° Southeast 430 495 41,000  Level FlightAware Transoceanic
Tue 11:15:00 AM 36.9825 -68.8232 134° Southeast 430 495 41,000  Level FlightAware Transoceanic
Tue 11:16:00 AM 36.8995 -68.7148 134° Southeast 430 495 41,000  Level FlightAware Transoceanic
Tue 11:17:00 AM 36.8164 -68.6066 134° Southeast 430 495 41,000  Level FlightAware Transoceanic
Tue 11:18:00 AM 36.7333 -68.4986 134° Southeast 430 495 41,000  Level FlightAware Transoceanic
Tue 11:19:00 AM 36.6500 -68.3908 134° Southeast 430 495 41,000  Level FlightAware Transoceanic
Tue 11:20:00 AM 36.5667 -68.2833 142° Southeast 430 495 41,000  Level FlightAware Transoceanic
Tue 11:21:00 AM 36.4728 -68.1917 142° Southeast 430 495 41,000  Level FlightAware Transoceanic
Tue 11:22:00 AM 36.3789 -68.1003 142° Southeast 430 495 41,000  Level FlightAware Transoceanic
Tue 11:23:00 AM 36.2849 -68.0090 142° Southeast 430 495 41,000  Level FlightAware Transoceanic
Tue 11:23:37 AM 36.5667 -68.2833 142° Southeast 429 494 41,000  Level New York Oceanic (ODAPS)
Tue 11:24:00 AM 36.1908 -67.9181 142° Southeast 430 495 41,000  Level FlightAware Transoceanic
Tue 11:25:00 AM 36.0966 -67.8273 142° Southeast 430 495 41,000  Level FlightAware Transoceanic
Tue 11:26:00 AM 36.0024 -67.7367 142° Southeast 430 495 41,000  Level FlightAware Transoceanic
Tue 11:27:00 AM 35.9081 -67.6464 142° Southeast 430 495 41,000  Level FlightAware Transoceanic
Tue 11:28:00 AM 35.8138 -67.5563 142° Southeast 430 495 41,000  Level FlightAware Transoceanic
Tue 11:29:00 AM 35.7194 -67.4664 142° Southeast 429 494 41,000  Level FlightAware Transoceanic
Tue 11:30:00 AM 35.6249 -67.3767 142° Southeast 429 494 41,000  Level FlightAware Transoceanic
Tue 11:31:00 AM 35.5303 -67.2872 142° Southeast 429 494 41,000  Level FlightAware Transoceanic
Tue 11:32:00 AM 35.4357 -67.1979 142° Southeast 429 494 41,000  Level FlightAware Transoceanic
Tue 11:33:00 AM 35.3410 -67.1089 143° Southeast 429 494 41,000  Level FlightAware Transoceanic
Tue 11:34:00 AM 35.2463 -67.0200 143° Southeast 429 494 41,000  Level FlightAware Transoceanic
Tue 11:35:00 AM 35.1515 -66.9314 143° Southeast 429 494 41,000  Level FlightAware Transoceanic
Tue 11:36:00 AM 35.0566 -66.8429 143° Southeast 429 494 41,000  Level FlightAware Transoceanic
Tue 11:37:00 AM 34.9617 -66.7547 143° Southeast 429 494 41,000  Level FlightAware Transoceanic
Tue 11:38:00 AM 34.8667 -66.6667 169° South 429 494 41,000  Level FlightAware Transoceanic
Tue 11:39:00 AM 34.7430 -66.6365 169° South 429 494 41,000  Level FlightAware Transoceanic
Tue 11:39:58 AM 34.8667 -66.6667 169° South 443 510 41,000  Level New York Oceanic (ODAPS)
Tue 11:40:00 AM 34.6192 -66.6064 169° South 429 494 41,000  Level FlightAware Transoceanic
Tue 11:41:00 AM 34.4955 -66.5765 169° South 429 494 41,000  Level FlightAware Transoceanic
Tue 11:42:00 AM 34.3717 -66.5466 169° South 429 494 41,000  Level FlightAware Transoceanic
Tue 11:43:00 AM 34.2480 -66.5168 169° South 429 494 41,000  Level FlightAware Transoceanic
Tue 11:44:00 AM 34.1242 -66.4871 169° South 429 494 41,000  Level FlightAware Transoceanic
Tue 11:45:00 AM 34.0005 -66.4574 169° South 429 494 41,000  Level FlightAware Transoceanic
Tue 11:46:00 AM 33.7777 -66.4043 169° South 443 510 41,000  Level FlightAware Transoceanic
Tue 11:47:00 AM 33.6567 -66.3756 169° South 443 510 41,000  Level FlightAware Transoceanic
Tue 11:48:00 AM 33.5356 -66.3469 169° South 443 510 41,000  Level FlightAware Transoceanic
Tue 11:49:00 AM 33.4146 -66.3183 169° South 443 510 41,000  Level FlightAware Transoceanic
Tue 11:50:00 AM 33.2935 -66.2898 169° South 443 510 41,000  Level FlightAware Transoceanic
Tue 11:51:00 AM 33.1725 -66.2614 169° South 443 510 41,000  Level FlightAware Transoceanic
Tue 11:52:00 AM 33.0514 -66.2331 169° South 443 510 41,000  Level FlightAware Transoceanic
Tue 11:53:00 AM 32.9303 -66.2048 169° South 443 510 41,000  Level FlightAware Transoceanic
Tue 11:54:00 AM 32.8092 -66.1766 169° South 443 510 41,000  Level FlightAware Transoceanic
Tue 11:55:00 AM 32.6882 -66.1485 169° South 443 510 41,000  Level FlightAware Transoceanic
Tue 11:56:00 AM 32.5671 -66.1205 169° South 443 510 41,000  Level FlightAware Transoceanic
Tue 11:57:00 AM 32.4460 -66.0925 169° South 443 510 41,000  Level FlightAware Transoceanic
Tue 11:58:00 AM 32.3249 -66.0647 169° South 443 510 41,000  Level FlightAware Transoceanic
Tue 11:59:00 AM 32.2038 -66.0368 169° South 443 510 41,000  Level FlightAware Transoceanic
Tue 12:00:00 PM 32.0826 -66.0091 169° South 443 510 41,000  Level FlightAware Transoceanic
Tue 12:01:00 PM 31.9615 -65.9815 169° South 443 510 41,000  Level FlightAware Transoceanic
Tue 12:02:00 PM 31.8404 -65.9539 169° South 443 510 41,000  Level FlightAware Transoceanic
Tue 12:03:00 PM 31.7193 -65.9264 169° South 443 510 41,000  Level FlightAware Transoceanic
Tue 12:04:00 PM 31.5981 -65.8989 169° South 443 510 41,000  Level FlightAware Transoceanic
Tue 12:05:00 PM 31.4770 -65.8716 169° South 443 510 41,000  Level FlightAware Transoceanic
Tue 12:06:00 PM 31.3558 -65.8443 169° South 443 510 41,000  Level FlightAware Transoceanic
Tue 12:07:00 PM 31.2347 -65.8170 169° South 443 510 41,000  Level FlightAware Transoceanic
Tue 12:08:00 PM 31.1135 -65.7899 169° South 443 510 41,000  Level FlightAware Transoceanic
Tue 12:09:00 PM 30.9923 -65.7628 169° South 443 510 41,000  Level FlightAware Transoceanic
Tue 12:10:00 PM 30.8712 -65.7357 169° South 443 510 41,000  Level FlightAware Transoceanic
Tue 12:11:00 PM 30.7500 -65.7088 169° South 443 510 41,000  Level FlightAware Transoceanic
Tue 12:12:00 PM 30.6288 -65.6819 169° South 443 510 41,000  Level FlightAware Transoceanic
Tue 12:13:00 PM 30.5076 -65.6551 169° South 443 510 41,000  Level FlightAware Transoceanic
Tue 12:14:00 PM 30.3864 -65.6283 169° South 443 510 41,000  Level FlightAware Transoceanic
Tue 12:15:00 PM 30.2652 -65.6016 169° South 443 510 41,000  Level FlightAware Transoceanic
Tue 12:16:00 PM 30.1440 -65.5750 169° South 443 510 41,000  Level FlightAware Transoceanic
Tue 12:17:00 PM 30.0228 -65.5485 169° South 443 510 41,000  Level FlightAware Transoceanic
Tue 12:18:00 PM 29.9016 -65.5220 169° South 443 510 41,000  Level FlightAware Transoceanic
Tue 12:19:00 PM 29.7804 -65.4956 169° South 443 510 41,000  Level FlightAware Transoceanic
Tue 12:20:00 PM 29.6591 -65.4692 169° South 443 510 41,000  Level FlightAware Transoceanic
Tue 12:21:00 PM 29.5379 -65.4429 169° South 443 510 41,000  Level FlightAware Transoceanic
Tue 12:22:00 PM 29.4167 -65.4167 169° South 443 510 41,000  Level FlightAware Transoceanic
Tue 12:23:00 PM 29.2932 -65.3897 169° South 443 510 41,000  Level FlightAware Transoceanic
Tue 12:24:00 PM 29.1697 -65.3628 169° South 443 510 41,000  Level FlightAware Transoceanic
Tue 12:25:00 PM 29.0462 -65.3359 169° South 443 510 41,000  Level FlightAware Transoceanic
Tue 12:26:00 PM 28.9227 -65.3092 169° South 443 510 41,000  Level FlightAware Transoceanic
Tue 12:26:48 PM 29.4167 -65.4167 169° South 452 520 41,000  Level New York Oceanic (ODAPS)
Tue 12:27:00 PM 28.7992 -65.2824 169° South 443 510 41,000  Level FlightAware Transoceanic
Tue 12:28:00 PM 28.6757 -65.2558 169° South 443 510 41,000  Level FlightAware Transoceanic
Tue 12:29:00 PM 28.5521 -65.2292 169° South 443 510 41,000  Level FlightAware Transoceanic
Tue 12:30:00 PM 28.4286 -65.2027 169° South 443 510 41,000  Level FlightAware Transoceanic
Tue 12:31:00 PM 28.3051 -65.1762 169° South 443 510 41,000  Level FlightAware Transoceanic
Tue 12:32:00 PM 28.1815 -65.1498 169° South 443 510 41,000  Level FlightAware Transoceanic
Tue 12:33:00 PM 28.1815 -65.1498 169° South 452 520 41,000  Level FlightAware Transoceanic
Tue 12:34:00 PM 28.0580 -65.1235 169° South 452 520 41,000  Level FlightAware Transoceanic
Tue 12:35:00 PM 27.9345 -65.0972 169° South 452 520 41,000  Level FlightAware Transoceanic
Tue 12:36:00 PM 27.8109 -65.0710 169° South 452 520 41,000  Level FlightAware Transoceanic
Tue 12:37:00 PM 27.6874 -65.0448 169° South 452 520 41,000  Level FlightAware Transoceanic
Tue 12:38:00 PM 27.5638 -65.0187 169° South 452 520 41,000  Level FlightAware Transoceanic
Tue 12:39:00 PM 27.4402 -64.9927 169° South 452 520 41,000  Level FlightAware Transoceanic
Tue 12:40:00 PM 27.3167 -64.9667 169° South 452 520 41,000  Level FlightAware Transoceanic
Tue 12:41:00 PM 27.1953 -64.9407 169° South 452 520 41,000  Level FlightAware Transoceanic
Tue 12:42:00 PM 27.0739 -64.9149 169° South 452 520 41,000  Level FlightAware Transoceanic
Tue 12:43:00 PM 26.9525 -64.8890 169° South 452 520 41,000  Level FlightAware Transoceanic
Tue 12:44:00 PM 26.8311 -64.8633 169° South 452 520 41,000  Level FlightAware Transoceanic
Tue 12:45:00 PM 26.7097 -64.8376 169° South 452 520 41,000  Level FlightAware Transoceanic
Tue 12:46:00 PM 26.5883 -64.8119 169° South 452 520 41,000  Level FlightAware Transoceanic
Tue 12:47:00 PM 26.4669 -64.7863 169° South 452 520 41,000  Level FlightAware Transoceanic
Tue 12:48:00 PM 26.3454 -64.7607 169° South 452 520 41,000  Level FlightAware Transoceanic
Tue 12:49:00 PM 26.2240 -64.7353 169° South 452 520 41,000  Level FlightAware Transoceanic
Tue 12:49:44 PM 27.3167 -64.9667 169° South 471 542 41,000  Level New York Oceanic (ODAPS)
Tue 12:50:00 PM 26.1026 -64.7098 169° South 452 520 41,000  Level FlightAware Transoceanic
Tue 12:51:00 PM 25.9811 -64.6844 169° South 452 520 41,000  Level FlightAware Transoceanic
Tue 12:52:00 PM 25.8597 -64.6591 169° South 452 520 41,000  Level FlightAware Transoceanic
Tue 12:53:00 PM 25.7383 -64.6338 169° South 452 520 41,000  Level FlightAware Transoceanic
Tue 12:54:00 PM 25.6168 -64.6086 169° South 452 520 41,000  Level FlightAware Transoceanic
Tue 12:55:00 PM 25.4954 -64.5834 169° South 452 520 41,000  Level FlightAware Transoceanic
Tue 12:56:00 PM 25.3298 -64.5491 169° South 471 542 41,000  Level FlightAware Transoceanic
Tue 12:57:00 PM 25.2055 -64.5235 169° South 471 542 41,000  Level FlightAware Transoceanic
Tue 12:58:00 PM 25.0813 -64.4979 169° South 471 542 41,000  Level FlightAware Transoceanic
Tue 12:59:00 PM 24.9571 -64.4724 169° South 471 542 41,000  Level FlightAware Transoceanic
Tue 01:00:00 PM 24.8328 -64.4469 169° South 471 542 41,000  Level FlightAware Transoceanic
Tue 01:00:58 PM 25.5167 -64.5833 169° South 442 509 41,000  Level New York Oceanic (ODAPS)
Tue 01:01:00 PM 24.7086 -64.4215 169° South 471 542 41,000  Level FlightAware Transoceanic
Tue 01:02:00 PM 24.5844 -64.3961 169° South 471 542 41,000  Level FlightAware Transoceanic
Tue 01:03:00 PM 24.4601 -64.3708 170° South 471 542 41,000  Level FlightAware Transoceanic
Tue 01:04:00 PM 24.3359 -64.3455 170° South 471 542 41,000  Level FlightAware Transoceanic
Tue 01:05:00 PM 24.2116 -64.3203 170° South 471 542 41,000  Level FlightAware Transoceanic
Tue 01:06:00 PM 24.0874 -64.2952 170° South 471 542 41,000  Level FlightAware Transoceanic
Tue 01:07:00 PM 24.0504 -64.2850 170° South 442 509 41,000  Level FlightAware Transoceanic
Tue 01:08:00 PM 23.9282 -64.2605 170° South 442 509 41,000  Level FlightAware Transoceanic
Tue 01:09:00 PM 23.8060 -64.2360 170° South 442 509 41,000  Level FlightAware Transoceanic
Tue 01:10:00 PM 23.6838 -64.2115 170° South 442 509 41,000  Level FlightAware Transoceanic
Tue 01:11:00 PM 23.5615 -64.1871 170° South 442 509 41,000  Level FlightAware Transoceanic
Tue 01:12:00 PM 23.4393 -64.1628 170° South 442 509 41,000  Level FlightAware Transoceanic
Tue 01:13:00 PM 23.3171 -64.1384 170° South 442 509 41,000  Level FlightAware Transoceanic
Tue 01:14:00 PM 23.1948 -64.1142 170° South 442 509 41,000  Level FlightAware Transoceanic
Tue 01:15:00 PM 23.0726 -64.0899 170° South 442 509 41,000  Level FlightAware Transoceanic
Tue 01:16:00 PM 22.9504 -64.0657 170° South 442 509 41,000  Level FlightAware Transoceanic
Tue 01:17:00 PM 22.8281 -64.0416 170° South 442 509 41,000  Level FlightAware Transoceanic
Tue 01:18:00 PM 22.7059 -64.0175 170° South 442 509 41,000  Level FlightAware Transoceanic
Tue 01:19:00 PM 22.5836 -63.9935 170° South 442 509 41,000  Level FlightAware Transoceanic
Tue 01:20:00 PM 22.4613 -63.9694 170° South 442 509 41,000  Level FlightAware Transoceanic
Tue 01:21:00 PM 22.3391 -63.9455 170° South 442 509 41,000  Level FlightAware Transoceanic
Tue 01:21:25 PM 22.8333 -64.0333 170° South 448 516 41,000  Level New York Oceanic (ODAPS)
Tue 01:22:00 PM 22.2168 -63.9215 170° South 442 509 41,000  Level FlightAware Transoceanic
Tue 01:23:00 PM 22.0945 -63.8977 170° South 442 509 41,000  Level FlightAware Transoceanic
Tue 01:24:00 PM 21.9723 -63.8738 170° South 442 509 41,000  Level FlightAware Transoceanic
Tue 01:25:00 PM 21.8500 -63.8500 170° South 442 509 41,000  Level FlightAware Transoceanic
Tue 01:26:00 PM 21.7308 -63.8265 170° South 442 509 41,000  Level FlightAware Transoceanic
Tue 01:26:58 PM 21.8667 -63.8500 170° South 440 506 41,000  Level San Juan Center
Tue 01:27:00 PM 21.7308 -63.8265 170° South 448 516 41,000  Level FlightAware Transoceanic
Tue 01:27:58 PM 21.7500 -63.8167 165° South 410 472 41,000  Level San Juan Center
Tue 01:28:00 PM 21.6115 -63.8031 170° South 448 516 41,000  Level FlightAware Transoceanic
Tue 01:28:58 PM 21.6333 -63.8000 172° South 410 472 41,000  Level San Juan Center
Tue 01:29:00 PM 21.4923 -63.7797 170° South 448 516 41,000  Level FlightAware Transoceanic
Tue 01:29:59 PM 21.5167 -63.7833 172° South 400 460 41,000  Level San Juan Center
Tue 01:30:00 PM 21.3731 -63.7563 170° South 448 516 41,000  Level FlightAware Transoceanic
Tue 01:30:59 PM 21.4167 -63.7667 171° South 430 495 41,000  Level San Juan Center
Tue 01:31:00 PM 21.2539 -63.7330 170° South 448 516 41,000  Level FlightAware Transoceanic
Tue 01:32:00 PM 21.1346 -63.7097 170° South 448 516 41,000  Level FlightAware Transoceanic
Tue 01:33:00 PM 21.1667 -63.7167 169° South 420 483 41,000  Level San Juan Center
Tue 01:34:00 PM 21.0667 -63.6833 163° South 410 472 41,000  Level San Juan Center
Tue 01:35:00 PM 20.9522 -63.6592 169° South  Level FlightAware Approximate
Tue 01:35:00 PM 20.9333 -63.6667 169° South 450 518 41,000  Level San Juan Center
Tue 01:36:01 PM 20.8333 -63.6500 171° South 390 449 41,000  Level San Juan Center
Tue 01:37:01 PM 20.7167 -63.6167 165° South 420 483 41,000  Level San Juan Center
Tue 01:38:01 PM 20.6000 -63.6000 172° South 400 460 41,000 -149 Level San Juan Center
Tue 01:39:02 PM 20.4833 -63.5833 172° South 420 483 40,700 -1,041 Descending San Juan Center
Tue 01:40:02 PM 20.3500 -63.5500 167° South 430 495 38,900 -1,550 Descending San Juan Center
Tue 01:41:02 PM 20.2333 -63.5167 165° South 440 506 37,600 -1,240 Descending San Juan Center
Tue 01:42:03 PM 20.1000 -63.5000 173° South 440 506 36,400 -1,190 Descending San Juan Center
Tue 01:43:03 PM 19.9833 -63.4667 165° South 450 518 35,200 -1,250 Descending San Juan Center
Tue 01:44:03 PM 19.8500 -63.4500 173° South 450 518 33,900 -1,250 Descending San Juan Center
Tue 01:45:03 PM 19.7333 -63.4333 172° South 450 518 32,700 -1,835 Descending San Juan Center
Tue 01:46:04 PM 19.6000 -63.4000 167° South 450 518 30,200 -2,479 Descending San Juan Center
Tue 01:47:04 PM 19.4833 -63.3833 172° South 460 529 27,700 -2,450 Descending San Juan Center
Tue 01:48:04 PM 19.3500 -63.3500 167° South 460 529 25,300 -2,400 Descending San Juan Center
Tue 01:49:04 PM 19.2333 -63.3333 172° South 440 506 22,900 -2,231 Descending San Juan Center
Tue 01:50:05 PM 19.1167 -63.3167 172° South 430 495 20,800 -2,132 Descending San Juan Center
Tue 01:51:05 PM 19.0000 -63.2833 165° South 410 472 18,600 -2,000 Descending San Juan Center
Tue 01:52:05 PM 18.9000 -63.2667 171° South 400 460 16,800 -1,956 Descending San Juan Center
Tue 01:53:20 PM 18.7667 -63.2500 173° South 380 437 14,200 -2,080 Descending San Juan Center
Tue 01:55:00 PM 18.5796 -63.2113 175° South  Level FlightAware Approximate
Tue 02:02:00 PM 18.2000 -63.0500 18° North  Level FlightAware Approximate
Tue 02:03:00 PM 18.2048 -63.0551 18° North  Level Estimated
Tue 02:04:00 PM 18.2000 -63.0500 18° North  Level FlightAware Approximate
Tue 02:05:00 PM 18.2048 -63.0551 18° North  Level Estimated
Tue 02:06:00 PM 18.2000 -63.0500 18° North  Level FlightAware Approximate
Tue 02:07:00 PM 18.2048 -63.0551 18° North  Level Estimated
Tue 02:08:00 PM 18.2000 -63.0500 18° North  Level FlightAware Approximate
Tue 02:09:00 PM 18.2048 -63.0551 18° North  Level Estimated
Tue 02:10:00 PM 18.2000 -63.0500 18° North  Level FlightAware Approximate
Tue 02:11:00 PM 18.2048 -63.0551 18° North  Level Estimated
Tue 02:12:00 PM 18.2000 -63.0500 18° North  Level FlightAware Approximate
Tue 02:13:00 PM 18.2048 -63.0551 18° North  Level Estimated
Tue 02:14:00 PM 18.2000 -63.0500 18° North  Level FlightAware Approximate
Tue 02:15:00 PM 18.2048 -63.0551 18° North  Level Estimated
Tue 02:16:00 PM 18.2000 -63.0500 18° North  Level FlightAware Approximate

Login

Don't have an account? Register now (free) for customized features, flight alerts, and more!